Graysville, Missouri
Current Conditions -  °F | °C
As of 2:35 AM on Saturday 25 Oct 2014 (Local Time) from KTVK Reporting Station
Moderate Fog Moderate Fog  
Wind Chill: 50°   Ceiling: 100
Heat Index: 50°   Visibility: 0.5mi
Dew Point: 50°   Wind: 5mph
Humidity: 100%   Direction: 270°W
Pressure: 30"   Gusts: NA
Location:  40.4961°N, 92.9907°W
Report Text: KTVK 250735Z AUTO 27004KT 1/2SM FG OVC001 10/10 A3000 RMK AO2
Loading
Personal Weather Stations






























Interactive Weather Map New forecast layout! Learn more

10-Day Weather Forecast

Advertisements
Track Severe Weather on mobile